Time;durP1;ratioP1;P1;durP2;ratioP2;P2;SDS_P1;SDS_P2;PMS_P1;PMS_P2;Temp;Humidity;BMP_temperature;BMP_pressure;BME280_temperature;BME280_humidity;BME280_pressure;Samples;Min_cycle;Max_cycle;Signal;HPM_P1;HPM_P2
2022/09/15 00:01:26;;;;;;;1999.90;999.90;;;14.40;99.90;;;;;;5269658;28;20039;-73
2022/09/15 00:03:56;;;;;;;1999.90;999.90;;;14.40;99.90;;;;;;5269282;28;20062;-73
2022/09/15 00:06:27;;;;;;;1999.90;999.90;;;14.40;99.90;;;;;;5269347;28;20071;-74
2022/09/15 00:08:58;;;;;;;1999.90;999.90;;;14.40;99.90;;;;;;5268277;28;20020;-72
2022/09/15 00:11:31;;;;;;;1999.90;999.90;;;14.20;99.90;;;;;;5269463;28;20031;-74
2022/09/15 00:14:05;;;;;;;1999.90;999.90;;;14.00;99.90;;;;;;5269460;28;20812;-73
2022/09/15 00:16:37;;;;;;;1999.90;999.90;;;13.90;99.90;;;;;;5269387;28;20020;-73
2022/09/15 00:19:08;;;;;;;1999.90;999.90;;;14.00;99.90;;;;;;5269304;28;20028;-72
2022/09/15 00:21:40;;;;;;;1999.90;999.90;;;14.00;99.90;;;;;;5268976;28;20028;-74
2022/09/15 00:24:11;;;;;;;1999.90;999.90;;;14.10;99.90;;;;;;5269238;28;20082;-73
2022/09/15 00:26:42;;;;;;;1999.90;999.90;;;14.40;99.90;;;;;;5268209;28;20451;-72
2022/09/15 00:29:13;;;;;;;1999.90;999.90;;;14.50;99.90;;;;;;5268756;28;20081;-73
2022/09/15 00:31:43;;;;;;;1999.90;999.90;;;14.60;99.90;;;;;;5268733;28;20035;-73
2022/09/15 00:34:15;;;;;;;1999.90;999.90;;;14.60;99.90;;;;;;5268539;28;20020;-74
2022/09/15 00:36:45;;;;;;;1999.90;999.90;;;14.70;99.90;;;;;;5269000;28;20024;-74
2022/09/15 00:39:17;;;;;;;1999.90;999.90;;;14.40;99.90;;;;;;5268611;28;20031;-73
2022/09/15 00:41:47;;;;;;;1999.90;999.90;;;14.40;99.90;;;;;;5268956;28;20035;-73
2022/09/15 00:44:18;;;;;;;1999.90;999.90;;;14.50;99.90;;;;;;5268828;28;20380;-73
2022/09/15 00:46:53;;;;;;;1999.90;999.90;;;14.10;99.90;;;;;;5268473;28;20036;-73
2022/09/15 00:49:30;;;;;;;1999.90;999.90;;;14.20;99.90;;;;;;5268510;28;20480;-74
2022/09/15 00:52:03;;;;;;;1999.90;999.90;;;14.30;99.90;;;;;;5268752;28;20027;-73
2022/09/15 00:54:42;;;;;;;1999.90;999.90;;;14.20;99.90;;;;;;5268496;28;20364;-73
2022/09/15 00:57:37;;;;;;;1999.90;999.90;;;14.00;99.90;;;;;;5268350;28;20068;-74
2022/09/15 01:00:12;;;;;;;1999.90;999.90;;;13.90;99.90;;;;;;5268479;28;20487;-73
2022/09/15 01:02:46;;;;;;;1999.90;999.90;;;14.10;99.90;;;;;;5268021;28;20051;-72
2022/09/15 01:05:22;;;;;;;1999.90;999.90;;;14.10;99.90;;;;;;5267971;28;20445;-72
2022/09/15 01:08:12;;;;;;;1999.90;999.90;;;14.20;99.90;;;;;;5268220;28;20418;-72
2022/09/15 01:10:45;;;;;;;1999.90;999.90;;;14.00;99.90;;;;;;5268209;28;20020;-73
2022/09/15 01:13:16;;;;;;;1999.90;999.90;;;14.10;99.90;;;;;;5268151;28;20024;-73
2022/09/15 01:16:11;;;;;;;1999.90;999.90;;;14.20;99.90;;;;;;5268147;28;20031;-73
2022/09/15 01:19:11;;;;;;;1999.90;999.90;;;14.10;99.90;;;;;;5268362;28;20020;-73
2022/09/15 01:21:56;;;;;;;1999.90;999.90;;;14.00;99.90;;;;;;5268191;28;20020;-73
2022/09/15 01:24:40;;;;;;;1999.90;999.90;;;13.90;99.90;;;;;;5268102;28;20107;-73
2022/09/15 01:27:33;;;;;;;1999.90;999.90;;;13.90;99.90;;;;;;5267616;28;20056;-74
2022/09/15 01:30:14;;;;;;;1999.90;999.90;;;13.80;99.90;;;;;;5268169;28;20099;-74
2022/09/15 01:33:11;;;;;;;1999.90;999.90;;;13.70;99.90;;;;;;5267829;28;20036;-72
2022/09/15 01:36:24;;;;;;;1999.90;999.90;;;14.00;99.90;;;;;;5268562;28;20055;-73
2022/09/15 01:39:15;;;;;;;1999.90;999.90;;;13.90;99.90;;;;;;5244530;28;20062;-73
2022/09/15 01:41:55;;;;;;;1999.90;999.90;;;14.10;99.90;;;;;;5266835;28;20369;-73
2022/09/15 01:44:56;;;;;;;1999.90;999.90;;;14.00;99.90;;;;;;5268156;28;20548;-72
2022/09/15 01:47:29;;;;;;;1999.90;999.90;;;13.90;99.90;;;;;;5267927;28;20075;-73
2022/09/15 01:50:12;;;;;;;1999.90;999.90;;;14.00;99.90;;;;;;5267932;28;20020;-73
2022/09/15 01:52:47;;;;;;;1999.90;999.90;;;13.90;99.90;;;;;;5268098;28;20035;-73
2022/09/15 01:55:25;;;;;;;1999.90;999.90;;;14.40;99.90;;;;;;5267503;28;20026;-73
2022/09/15 01:57:58;;;;;;;1999.90;999.90;;;13.80;99.90;;;;;;5267781;28;20115;-73
2022/09/15 02:00:32;;;;;;;1999.90;999.90;;;13.90;99.90;;;;;;5267913;28;20016;-73
2022/09/15 02:03:16;;;;;;;1999.90;999.90;;;14.10;99.90;;;;;;5267758;28;20352;-72
2022/09/15 02:06:00;;;;;;;1999.90;999.90;;;14.10;99.90;;;;;;5267705;28;20891;-73
2022/09/15 02:08:46;;;;;;;1999.90;999.90;;;14.00;99.90;;;;;;5267838;28;20107;-73
2022/09/15 02:11:25;;;;;;;1999.90;999.90;;;14.10;99.90;;;;;;5268106;28;20028;-73
2022/09/15 02:14:10;;;;;;;1999.90;999.90;;;14.20;99.90;;;;;;5267626;28;20065;-73
2022/09/15 02:16:45;;;;;;;1999.90;999.90;;;14.30;99.90;;;;;;5271725;28;20028;-75
2022/09/15 02:19:19;;;;;;;1999.90;999.90;;;14.40;99.90;;;;;;5271429;28;20103;-73
2022/09/15 02:21:52;;;;;;;1999.90;999.90;;;14.30;99.90;;;;;;5271523;28;20052;-74
2022/09/15 02:24:43;;;;;;;1999.90;999.90;;;14.40;99.90;;;;;;5270250;28;20357;-74
2022/09/15 02:27:23;;;;;;;1999.90;999.90;;;14.60;99.90;;;;;;5271078;28;20052;-73
2022/09/15 02:30:00;;;;;;;1999.90;999.90;;;14.70;99.90;;;;;;5271528;28;20429;-74
2022/09/15 02:32:33;;;;;;;1999.90;999.90;;;14.80;99.90;;;;;;5271334;28;20107;-74
2022/09/15 02:35:06;;;;;;;1999.90;999.90;;;14.50;99.90;;;;;;5271136;28;20016;-74
2022/09/15 02:37:37;;;;;;;1999.90;999.90;;;14.90;99.90;;;;;;5271390;28;20024;-73
2022/09/15 02:40:09;;;;;;;1999.90;999.90;;;14.70;99.90;;;;;;5271144;28;20028;-73
2022/09/15 02:42:41;;;;;;;1999.90;999.90;;;14.40;99.90;;;;;;5271347;28;20032;-73
2022/09/15 02:45:12;;;;;;;1999.90;999.90;;;14.50;99.90;;;;;;5270874;28;20398;-73
2022/09/15 02:47:42;;;;;;;1999.90;999.90;;;14.50;99.90;;;;;;5271048;28;20032;-73
2022/09/15 02:50:13;;;;;;;1999.90;999.90;;;14.50;99.90;;;;;;5271056;28;20024;-74
2022/09/15 02:52:44;;;;;;;1999.90;999.90;;;14.50;99.90;;;;;;5270904;28;20057;-74
2022/09/15 02:55:15;;;;;;;1999.90;999.90;;;14.40;99.90;;;;;;5270938;28;20028;-73
2022/09/15 02:57:46;;;;;;;1999.90;999.90;;;14.60;99.90;;;;;;5270460;28;20047;-73
2022/09/15 03:00:18;;;;;;;1999.90;999.90;;;14.50;99.90;;;;;;5270693;28;20409;-73
2022/09/15 03:02:51;;;;;;;1999.90;999.90;;;14.90;99.90;;;;;;5270630;28;20024;-73
2022/09/15 03:05:25;;;;;;;1999.90;999.90;;;15.20;99.90;;;;;;5270611;28;20028;-73
2022/09/15 03:07:56;;;;;;;1999.90;999.90;;;15.30;99.90;;;;;;5269243;28;20044;-73
2022/09/15 03:10:27;;;;;;;1999.90;999.90;;;15.40;99.90;;;;;;5269439;28;20045;-73
2022/09/15 03:12:58;;;;;;;1999.90;999.90;;;15.50;99.90;;;;;;5270442;28;20028;-73
2022/09/15 03:15:29;;;;;;;1999.90;999.90;;;15.40;99.90;;;;;;5270449;28;20024;-73
2022/09/15 03:18:00;;;;;;;1999.90;999.90;;;15.20;99.90;;;;;;5270389;28;20602;-73
2022/09/15 03:20:32;;;;;;;1999.90;999.90;;;15.50;99.90;;;;;;5270018;28;20668;-73
2022/09/15 03:23:02;;;;;;;1999.90;999.90;;;15.40;99.90;;;;;;5270609;28;20031;-73
2022/09/15 03:25:33;;;;;;;1999.90;999.90;;;15.30;99.90;;;;;;5269917;28;20036;-73
2022/09/15 03:28:04;;;;;;;1999.90;999.90;;;15.40;99.90;;;;;;5269096;28;20437;-73
2022/09/15 03:30:35;;;;;;;1999.90;999.90;;;15.60;99.90;;;;;;5270095;28;20024;-73
2022/09/15 03:33:05;;;;;;;1999.90;999.90;;;15.60;99.90;;;;;;5270250;28;20016;-73
2022/09/15 03:35:37;;;;;;;1999.90;999.90;;;15.80;99.90;;;;;;5270356;28;20035;-72
2022/09/15 03:38:08;;;;;;;1999.90;999.90;;;16.20;99.90;;;;;;5269986;28;20475;-73
2022/09/15 03:40:38;;;;;;;1999.90;999.90;;;16.00;99.90;;;;;;5269571;28;20024;-73
2022/09/15 03:43:10;;;;;;;1999.90;999.90;;;16.10;99.90;;;;;;5269933;28;20020;-74
2022/09/15 03:45:41;;;;;;;1999.90;999.90;;;16.20;99.90;;;;;;5269601;28;20058;-73
2022/09/15 03:48:12;;;;;;;1999.90;999.90;;;16.20;99.90;;;;;;5269916;28;20024;-73
2022/09/15 03:50:43;;;;;;;1999.90;999.90;;;16.30;99.90;;;;;;5269886;28;20028;-73
2022/09/15 03:53:14;;;;;;;1999.90;999.90;;;16.20;99.90;;;;;;5269501;28;20028;-73
2022/09/15 03:55:46;;;;;;;1999.90;999.90;;;16.30;99.90;;;;;;5269457;28;20491;-73
2022/09/15 03:58:18;;;;;;;1999.90;999.90;;;16.40;99.90;;;;;;5269314;28;20093;-73
2022/09/15 04:00:48;;;;;;;1999.90;999.90;;;16.50;99.90;;;;;;5269390;28;20016;-73
2022/09/15 04:03:19;;;;;;;1999.90;999.90;;;16.40;99.90;;;;;;5269252;28;20078;-73
2022/09/15 04:05:50;;;;;;;1999.90;999.90;;;16.40;99.90;;;;;;5269167;28;20039;-73
2022/09/15 04:08:21;;;;;;;1999.90;999.90;;;16.50;99.90;;;;;;5269526;28;20073;-74
2022/09/15 04:10:53;;;;;;;1999.90;999.90;;;16.60;99.90;;;;;;5269194;28;20367;-73
2022/09/15 04:13:24;;;;;;;1999.90;999.90;;;16.70;99.90;;;;;;5269318;28;20540;-74
2022/09/15 04:16:06;;;;;;;1999.90;999.90;;;16.70;99.90;;;;;;5269199;28;20036;-73
2022/09/15 04:18:38;;;;;;;1999.90;999.90;;;16.80;99.90;;;;;;5269291;28;20028;-74
2022/09/15 04:21:14;;;;;;;1999.90;999.90;;;16.70;99.90;;;;;;5269041;28;20020;-73
2022/09/15 04:23:46;;;;;;;1999.90;999.90;;;16.80;99.90;;;;;;5268916;28;20020;-73
2022/09/15 04:26:34;;;;;;;1999.90;999.90;;;16.70;99.90;;;;;;5268788;28;20043;-72
2022/09/15 04:29:12;;;;;;;1999.90;999.90;;;16.80;99.90;;;;;;5269105;28;20097;-73
2022/09/15 04:31:43;;;;;;;1999.90;999.90;;;16.80;99.90;;;;;;5269066;28;20027;-73
2022/09/15 04:34:14;;;;;;;1999.90;999.90;;;16.70;99.90;;;;;;5268771;28;20028;-73
2022/09/15 04:36:45;;;;;;;1999.90;999.90;;;16.90;99.90;;;;;;5268857;28;20062;-73
2022/09/15 04:39:16;;;;;;;1999.90;999.90;;;17.00;99.90;;;;;;5268883;28;20445;-73
2022/09/15 04:41:47;;;;;;;1999.90;999.90;;;17.00;99.90;;;;;;5269027;28;20103;-73
2022/09/15 04:44:17;;;;;;;1999.90;999.90;;;17.10;99.90;;;;;;5268976;28;20085;-73
2022/09/15 04:46:48;;;;;;;1999.90;999.90;;;17.20;99.90;;;;;;5268645;28;20043;-73
2022/09/15 04:49:19;;;;;;;1999.90;999.90;;;17.50;99.90;;;;;;5268543;28;20095;-74
2022/09/15 04:51:53;;;;;;;1999.90;999.90;;;17.60;99.90;;;;;;5268404;28;20108;-73
2022/09/15 04:54:24;;;;;;;1999.90;999.90;;;17.80;99.90;;;;;;5268471;28;20032;-74
2022/09/15 04:56:55;;;;;;;1999.90;999.90;;;18.00;99.90;;;;;;5268408;28;20040;-73
2022/09/15 04:59:25;;;;;;;1999.90;999.90;;;18.10;99.90;;;;;;5268539;28;20033;-74
2022/09/15 05:01:56;;;;;;;1999.90;999.90;;;18.40;99.90;;;;;;5268244;28;20145;-72
2022/09/15 05:04:27;;;;;;;1999.90;999.90;;;18.50;99.90;;;;;;5268698;28;20684;-74
2022/09/15 05:06:58;;;;;;;1999.90;999.90;;;18.70;99.90;;;;;;5267839;28;20040;-73
2022/09/15 05:09:29;;;;;;;1999.90;999.90;;;18.80;99.90;;;;;;5268105;28;20081;-74
2022/09/15 05:12:00;;;;;;;1999.90;999.90;;;19.00;99.90;;;;;;5267990;28;20418;-73
2022/09/15 05:14:31;;;;;;;1999.90;999.90;;;19.10;99.90;;;;;;5268028;28;20077;-73
2022/09/15 05:17:02;;;;;;;1999.90;999.90;;;19.30;99.90;;;;;;5268154;28;20020;-73
2022/09/15 05:19:34;;;;;;;1999.90;999.90;;;19.30;99.90;;;;;;5267978;28;20043;-74
2022/09/15 05:22:05;;;;;;;1999.90;999.90;;;19.50;99.90;;;;;;5267668;28;20109;-72
2022/09/15 05:24:36;;;;;;;1999.90;999.90;;;19.80;99.90;;;;;;5267870;28;20369;-73
2022/09/15 05:27:07;;;;;;;1999.90;999.90;;;20.00;99.90;;;;;;5267346;28;20047;-74
2022/09/15 05:29:38;;;;;;;1999.90;999.90;;;20.20;99.90;;;;;;5268102;28;20123;-72
2022/09/15 05:32:08;;;;;;;1999.90;999.90;;;20.20;99.90;;;;;;5267683;28;20479;-74
2022/09/15 05:34:39;;;;;;;1999.90;999.90;;;20.40;99.90;;;;;;5267645;28;20030;-72
2022/09/15 05:37:10;;;;;;;1999.90;999.90;;;20.60;99.90;;;;;;5267693;28;20024;-73
2022/09/15 05:39:41;;;;;;;1999.90;999.90;;;20.80;99.90;;;;;;5267703;28;20024;-73
2022/09/15 05:42:12;;;;;;;1999.90;999.90;;;20.90;99.90;;;;;;5267560;28;20417;-73
2022/09/15 05:44:42;;;;;;;1999.90;999.90;;;21.20;99.90;;;;;;5267706;28;20453;-73
2022/09/15 05:47:15;;;;;;;1999.90;999.90;;;21.20;99.90;;;;;;5267572;28;20044;-73
2022/09/15 05:49:46;;;;;;;1999.90;999.90;;;21.30;99.90;;;;;;5268903;28;20479;-73
2022/09/15 05:52:17;;;;;;;1999.90;999.90;;;21.40;99.90;;;;;;5271800;28;20059;-73
2022/09/15 05:54:47;;;;;;;1999.90;999.90;;;21.60;99.90;;;;;;5271777;28;20028;-73
2022/09/15 05:57:18;;;;;;;1999.90;999.90;;;21.70;99.90;;;;;;5272001;28;20498;-73
2022/09/15 05:59:49;;;;;;;1999.90;999.90;;;21.80;99.90;;;;;;5271499;28;20028;-75
2022/09/15 06:02:20;;;;;;;1999.90;999.90;;;21.70;99.90;;;;;;5271529;28;20093;-73
2022/09/15 06:04:51;;;;;;;1999.90;999.90;;;21.80;99.90;;;;;;5271677;28;20025;-73
2022/09/15 06:07:21;;;;;;;1999.90;999.90;;;21.90;99.90;;;;;;5271391;28;20493;-73
2022/09/15 06:09:53;;;;;;;1999.90;999.90;;;21.90;99.90;;;;;;5271450;28;20051;-73
2022/09/15 06:12:23;;;;;;;1999.90;999.90;;;22.10;99.90;;;;;;5271663;28;20475;-76
2022/09/15 06:14:55;;;;;;;1999.90;999.90;;;22.20;99.90;;;;;;5271563;28;20026;-72
2022/09/15 06:17:26;;;;;;;1999.90;999.90;;;22.30;99.90;;;;;;5271338;28;20030;-74
2022/09/15 06:19:57;;;;;;;1999.90;999.90;;;22.60;99.90;;;;;;5271298;28;20016;-74
2022/09/15 06:22:28;;;;;;;1999.90;999.90;;;22.50;99.90;;;;;;5271407;28;20459;-73
2022/09/15 06:24:58;;;;;;;1999.90;999.90;;;22.80;99.90;;;;;;5270948;28;20074;-74
2022/09/15 06:27:29;;;;;;;1999.90;999.90;;;23.00;99.90;;;;;;5270826;28;20055;-73
2022/09/15 06:30:00;;;;;;;1999.90;999.90;;;23.00;99.90;;;;;;5271116;28;20032;-74
2022/09/15 06:32:31;;;;;;;1999.90;999.90;;;23.20;99.90;;;;;;5271044;28;20032;-74
2022/09/15 06:35:06;;;;;;;1999.90;999.90;;;23.30;99.90;;;;;;5271107;28;20024;-74
2022/09/15 06:37:36;;;;;;;1999.90;999.90;;;23.50;99.90;;;;;;5271077;28;20498;-74
2022/09/15 06:40:08;;;;;;;1999.90;999.90;;;23.50;99.90;;;;;;5271135;28;20024;-73
2022/09/15 06:42:39;;;;;;;1999.90;999.90;;;23.70;99.90;;;;;;5270726;28;20028;-73
2022/09/15 06:45:10;;;;;;;1999.90;999.90;;;23.70;99.90;;;;;;5270896;28;20490;-73
2022/09/15 06:47:40;;;;;;;1999.90;999.90;;;23.90;99.90;;;;;;5270633;28;20044;-74
2022/09/15 06:50:11;;;;;;;1999.90;999.90;;;24.00;99.90;;;;;;5270796;28;20073;-73
2022/09/15 06:52:42;;;;;;;1999.90;999.90;;;23.90;99.90;;;;;;5270716;28;20406;-73
2022/09/15 06:55:13;;;;;;;1999.90;999.90;;;24.00;99.90;;;;;;5270776;28;20024;-73
2022/09/15 06:57:44;;;;;;;1999.90;999.90;;;24.10;99.90;;;;;;5270435;28;20073;-73
2022/09/15 07:00:15;;;;;;;1999.90;999.90;;;24.10;99.90;;;;;;5270226;28;20031;-74
2022/09/15 07:02:48;;;;;;;1999.90;999.90;;;24.20;99.90;;;;;;5269348;28;20117;-75
2022/09/15 07:05:20;;;;;;;1999.90;999.90;;;24.40;99.90;;;;;;5270350;28;20024;-74
2022/09/15 07:07:51;;;;;;;1999.90;999.90;;;24.70;99.90;;;;;;5270308;28;20070;-74
2022/09/15 07:10:22;;;;;;;1999.90;999.90;;;24.60;99.90;;;;;;5270128;28;20028;-74
2022/09/15 07:12:54;;;;;;;1999.90;999.90;;;24.70;99.90;;;;;;5269554;28;20085;-73
2022/09/15 07:15:26;;;;;;;1999.90;999.90;;;24.70;99.90;;;;;;5270175;28;20024;-73
2022/09/15 07:17:58;;;;;;;1999.90;999.90;;;24.80;99.90;;;;;;5270168;28;20055;-73
2022/09/15 07:20:29;;;;;;;1999.90;999.90;;;24.90;99.90;;;;;;5270175;28;20046;-73
2022/09/15 07:23:00;;;;;;;1999.90;999.90;;;25.00;99.90;;;;;;5270160;28;20108;-72
2022/09/15 07:25:30;;;;;;;1999.90;999.90;;;25.10;99.90;;;;;;5270089;28;20540;-73
2022/09/15 07:28:02;;;;;;;1999.90;999.90;;;25.00;99.90;;;;;;5269822;28;20071;-75
2022/09/15 07:30:32;;;;;;;1999.90;999.90;;;25.10;99.90;;;;;;5269557;28;20032;-76
2022/09/15 07:33:04;;;;;;;1999.90;999.90;;;25.10;99.90;;;;;;5269884;28;20035;-73
2022/09/15 07:35:41;;;;;;;1999.90;999.90;;;25.30;99.90;;;;;;5269735;28;20031;-73
2022/09/15 07:38:11;;;;;;;1999.90;999.90;;;25.40;99.90;;;;;;5269751;28;20020;-73
2022/09/15 07:40:44;;;;;;;1999.90;999.90;;;25.90;99.90;;;;;;5269737;28;20035;-73
2022/09/15 07:43:15;;;;;;;1999.90;999.90;;;25.70;99.90;;;;;;5269516;28;20028;-74
2022/09/15 07:45:46;;;;;;;1999.90;999.90;;;25.90;99.90;;;;;;5269460;28;20036;-73
2022/09/15 07:48:17;;;;;;;1999.90;999.90;;;26.10;99.90;;;;;;5269400;28;20081;-74
2022/09/15 07:50:48;;;;;;;1999.90;999.90;;;26.00;99.90;;;;;;5269632;28;20039;-73
2022/09/15 07:53:19;;;;;;;1999.90;999.90;;;26.30;99.90;;;;;;5269454;28;20165;-73
2022/09/15 07:55:54;;;;;;;1999.90;999.90;;;26.00;99.90;;;;;;5269294;28;20024;-73
2022/09/15 07:58:25;;;;;;;1999.90;999.90;;;26.30;99.90;;;;;;5268127;28;20127;-73
2022/09/15 08:01:04;;;;;;;1999.90;999.90;;;26.50;99.90;;;;;;5269738;28;20032;-74
2022/09/15 08:03:40;;;;;;;1999.90;999.90;;;26.10;99.90;;;;;;5268347;28;21103;-73
2022/09/15 08:06:12;;;;;;;1999.90;999.90;;;26.30;99.90;;;;;;5267844;28;20051;-73
2022/09/15 08:08:43;;;;;;;1999.90;999.90;;;26.70;99.90;;;;;;5269197;28;20111;-74
2022/09/15 08:11:17;;;;;;;1999.90;999.90;;;26.50;99.90;;;;;;5269041;28;20111;-72
2022/09/15 08:13:49;;;;;;;1999.90;999.90;;;26.50;99.90;;;;;;5268780;28;20031;-73
2022/09/15 08:16:22;;;;;;;1999.90;999.90;;;26.50;99.90;;;;;;5268846;28;20028;-74
2022/09/15 08:18:54;;;;;;;1999.90;999.90;;;27.00;99.90;;;;;;5268915;28;20016;-74
2022/09/15 08:21:26;;;;;;;1999.90;999.90;;;27.00;99.90;;;;;;5269103;28;20031;-74
2022/09/15 08:23:58;;;;;;;1999.90;999.90;;;26.70;99.90;;;;;;5268768;28;20053;-73
2022/09/15 08:26:29;;;;;;;1999.90;999.90;;;26.90;99.90;;;;;;5268170;28;20036;-74
2022/09/15 08:29:01;;;;;;;1999.90;999.90;;;27.30;99.90;;;;;;5268848;28;20472;-73
2022/09/15 08:31:31;;;;;;;1999.90;999.90;;;27.40;99.90;;;;;;5268761;28;20020;-73
2022/09/15 08:34:05;;;;;;;1999.90;999.90;;;27.50;99.90;;;;;;5268496;28;20101;-74
2022/09/15 08:36:36;;;;;;;1999.90;999.90;;;27.70;99.90;;;;;;5268477;28;20047;-73
2022/09/15 08:39:07;;;;;;;1999.90;999.90;;;27.60;99.90;;;;;;5268547;28;20112;-73
2022/09/15 08:41:44;;;;;;;1999.90;999.90;;;27.70;99.90;;;;;;5268476;28;20028;-75
2022/09/15 08:44:39;;;;;;;1999.90;999.90;;;27.60;99.90;;;;;;5268579;28;20028;-73
2022/09/15 08:47:34;;;;;;;1999.90;999.90;;;27.40;99.90;;;;;;5268227;28;20111;-75
2022/09/15 08:50:18;;;;;;;1999.90;999.90;;;28.00;99.90;;;;;;5268416;28;20479;-74
2022/09/15 08:53:05;;;;;;;1999.90;999.90;;;28.20;99.90;;;;;;5268168;28;20031;-74
2022/09/15 08:55:41;;;;;;;1999.90;999.90;;;28.10;99.90;;;;;;5266913;28;20056;-73
2022/09/15 08:58:22;;;;;;;1999.90;999.90;;;28.00;99.90;;;;;;5268128;28;20707;-74
2022/09/15 09:01:03;;;;;;;1999.90;999.90;;;27.90;99.90;;;;;;5268110;28;20546;-75
2022/09/15 09:04:07;;;;;;;1999.90;999.90;;;28.00;99.90;;;;;;5267847;28;20364;-73
2022/09/15 09:07:13;;;;;;;1999.90;999.90;;;28.20;99.90;;;;;;5268416;28;20036;-73
2022/09/15 09:09:50;;;;;;;1999.90;999.90;;;28.80;99.90;;;;;;5268136;28;20024;-73
2022/09/15 09:12:34;;;;;;;1999.90;999.90;;;28.80;99.90;;;;;;5267924;28;20070;-73
2022/09/15 09:15:14;;;;;;;1999.90;999.90;;;29.00;99.90;;;;;;5267923;28;20016;-74
2022/09/15 09:18:03;;;;;;;546.08;141.65;;;28.80;99.90;;;;;;5267716;28;20049;-74
2022/09/15 09:20:50;;;;;;;1999.90;999.90;;;28.50;99.90;;;;;;5267724;28;20028;-74
2022/09/15 09:23:25;;;;;;;1999.90;999.90;;;28.50;99.90;;;;;;5267871;28;20082;-74
2022/09/15 09:25:57;;;;;;;1999.90;999.90;;;28.60;99.90;;;;;;5266831;28;20020;-74
2022/09/15 09:28:41;;;;;;;1999.90;999.90;;;29.00;99.90;;;;;;5267358;28;20534;-75
2022/09/15 09:31:18;;;;;;;1999.90;999.90;;;29.10;99.90;;;;;;5267667;28;20039;-73
2022/09/15 09:33:55;;;;;;;1999.90;999.90;;;29.00;99.90;;;;;;5267146;28;20016;-72
2022/09/15 09:36:26;;;;;;;1999.90;999.90;;;29.00;99.90;;;;;;5267537;28;20483;-73
2022/09/15 09:38:57;;;;;;;1999.90;999.90;;;29.40;99.90;;;;;;5267611;28;20031;-73
2022/09/15 09:41:37;;;;;;;1999.90;999.90;;;28.90;99.00;;;;;;5267577;28;20095;-74
2022/09/15 09:44:13;;;;;;;1999.90;999.90;;;28.70;97.40;;;;;;5267635;28;20036;-74
2022/09/15 09:46:45;;;;;;;1999.90;999.90;;;28.70;96.80;;;;;;5267393;28;20040;-75
2022/09/15 09:49:16;;;;;;;1999.90;999.90;;;28.90;96.60;;;;;;5267304;28;20027;-74
2022/09/15 09:51:51;;;;;;;1999.90;999.90;;;29.30;98.50;;;;;;5267328;28;20111;-73
2022/09/15 09:54:27;;;;;;;1999.90;999.90;;;29.60;99.70;;;;;;5267228;28;20111;-74
2022/09/15 09:57:13;;;;;;;1999.90;999.90;;;29.40;97.00;;;;;;5267568;28;20020;-73
2022/09/15 09:59:48;;;;;;;1999.90;999.90;;;30.20;99.90;;;;;;5267645;28;20047;-73
2022/09/15 10:02:24;;;;;;;1999.90;999.90;;;29.50;95.10;;;;;;5267494;28;20020;-74
2022/09/15 10:05:01;;;;;;;1999.90;999.90;;;29.30;96.10;;;;;;5267412;28;20045;-74
2022/09/15 10:07:33;;;;;;;1999.90;999.90;;;29.70;96.70;;;;;;5267152;28;20123;-73
2022/09/15 10:10:04;;;;;;;1999.90;999.90;;;29.90;96.40;;;;;;5267448;28;20032;-73
2022/09/15 10:12:40;;;;;;;1999.90;999.90;;;29.60;95.00;;;;;;5267252;28;20035;-73
2022/09/15 10:15:23;;;;;;;1999.90;999.90;;;29.90;96.00;;;;;;5267639;28;20032;-73
2022/09/15 10:17:55;;;;;;;1999.90;999.90;;;29.90;95.90;;;;;;5267218;28;20054;-73
2022/09/15 10:20:34;;;;;;;1999.90;999.90;;;30.00;94.20;;;;;;5267190;28;20077;-73
2022/09/15 10:23:17;;;;;;;1999.90;999.90;;;29.90;92.90;;;;;;5267164;28;20036;-73
2022/09/15 10:25:48;;;;;;;1999.90;999.90;;;30.20;94.10;;;;;;5266788;28;20039;-73
2022/09/15 10:28:22;;;;;;;1999.90;999.90;;;30.30;94.00;;;;;;5266738;28;20130;-74
2022/09/15 10:31:12;;;;;;;1557.05;759.75;;;30.30;93.50;;;;;;5266929;28;20024;-74
2022/09/15 10:33:44;;;;;;;1999.90;999.90;;;30.00;90.00;;;;;;5266923;28;20036;-74
2022/09/15 10:36:21;;;;;;;1999.90;999.90;;;30.30;92.70;;;;;;5268780;28;20024;-73
2022/09/15 10:39:18;;;;;;;1999.90;999.90;;;29.90;92.40;;;;;;5270738;28;20025;-75
2022/09/15 10:42:20;;;;;;;1999.90;999.90;;;29.90;93.20;;;;;;5270655;28;20357;-73
2022/09/15 10:45:18;;;;;;;1999.90;999.90;;;30.70;95.20;;;;;;5270721;28;20064;-72
2022/09/15 10:48:18;;;;;;;1999.90;999.90;;;30.20;95.90;;;;;;5270498;28;20039;-73
2022/09/15 10:51:37;;;;;;;1999.90;999.90;;;29.80;97.70;;;;;;5270522;28;20028;-73
2022/09/15 10:54:40;;;;;;;1999.90;999.90;;;30.70;96.60;;;;;;5270333;28;20139;-73
2022/09/15 10:57:42;;;;;;;1999.90;999.90;;;30.60;98.10;;;;;;5233409;28;20396;-73
2022/09/15 11:00:23;;;;;;;1999.90;999.90;;;30.50;95.50;;;;;;5270302;28;20038;-73
2022/09/15 11:02:54;;;;;;;1999.90;999.90;;;31.00;97.70;;;;;;5270217;28;20016;-73
2022/09/15 11:05:53;;;;;;;1999.90;999.90;;;30.30;98.20;;;;;;5269991;28;20380;-73
2022/09/15 11:08:43;;;;;;;1999.90;999.90;;;30.50;98.30;;;;;;5270201;28;20031;-74
2022/09/15 11:11:39;;;;;;;1999.90;999.90;;;30.90;99.90;;;;;;5270748;28;20060;-73
2022/09/15 11:14:32;;;;;;;1999.90;999.90;;;30.90;91.60;;;;;;5270314;28;20398;-73
2022/09/15 11:17:06;;;;;;;1999.90;999.90;;;31.10;92.50;;;;;;5268876;28;20054;-73
2022/09/15 11:20:03;;;;;;;1999.90;999.90;;;31.00;89.60;;;;;;5270156;28;20028;-73
2022/09/15 11:23:17;;;;;;;1999.90;999.90;;;30.80;88.80;;;;;;5270386;28;20020;-73
2022/09/15 11:25:53;;;;;;;1999.90;999.90;;;31.00;88.80;;;;;;5269793;28;20085;-73
2022/09/15 11:28:37;;;;;;;1999.90;999.90;;;30.20;90.00;;;;;;5269554;28;20069;-73
2022/09/15 11:31:25;;;;;;;1999.90;999.90;;;30.70;91.20;;;;;;5269855;28;20028;-74
2022/09/15 11:34:02;;;;;;;1999.90;999.90;;;31.00;92.80;;;;;;5269645;28;20028;-75
2022/09/15 11:37:01;;;;;;;1999.90;999.90;;;31.00;90.10;;;;;;5269494;28;20031;-74
2022/09/15 11:39:44;;;;;;;1999.90;999.90;;;31.50;90.50;;;;;;5265486;28;20036;-74
2022/09/15 11:42:24;;;;;;;1999.90;999.90;;;31.00;91.00;;;;;;5269299;28;20069;-73
2022/09/15 11:44:56;;;;;;;1999.90;999.90;;;31.00;89.50;;;;;;5269473;28;20426;-76
2022/09/15 11:47:41;;;;;;;1999.90;999.90;;;31.20;90.70;;;;;;5268359;28;20028;-74
2022/09/15 11:50:33;;;;;;;1999.90;999.90;;;31.70;90.20;;;;;;5269172;28;20103;-74
2022/09/15 11:53:20;;;;;;;1999.90;999.90;;;31.60;90.90;;;;;;5268563;28;20028;-73
2022/09/15 11:56:09;;;;;;;1999.90;999.90;;;32.10;90.90;;;;;;5268958;28;20052;-74
2022/09/15 11:59:02;;;;;;;;;;;31.90;88.60;;;;;;5269602;28;20068;-73
2022/09/15 12:01:47;;;;;;;1999.90;999.90;;;31.30;88.70;;;;;;5267793;28;19908;-73
2022/09/15 12:04:30;;;;;;;931.15;249.00;;;31.30;90.50;;;;;;5269145;28;20031;-74
2022/09/15 12:07:12;;;;;;;1250.25;120.63;;;31.20;93.30;;;;;;5268894;28;20036;-73
2022/09/15 12:09:43;;;;;;;1999.90;999.90;;;31.40;92.90;;;;;;5268803;28;20027;-74
2022/09/15 12:12:18;;;;;;;793.33;339.25;;;31.10;93.80;;;;;;5268979;28;20111;-75
2022/09/15 12:14:51;;;;;;;1999.90;999.90;;;31.00;94.30;;;;;;5268672;28;20471;-73
2022/09/15 12:17:40;;;;;;;1999.90;999.90;;;30.80;92.90;;;;;;5268773;28;20024;-73
2022/09/15 12:20:26;;;;;;;1999.90;999.90;;;30.80;94.20;;;;;;5269044;28;20107;-74
2022/09/15 12:23:15;;;;;;;1999.90;999.90;;;31.10;94.80;;;;;;5268542;28;20032;-74
2022/09/15 12:26:13;;;;;;;;;;;30.80;93.70;;;;;;5269202;28;20028;-74
2022/09/15 12:28:54;;;;;;;1999.90;999.90;;;31.00;96.10;;;;;;5269053;28;20015;-74
2022/09/15 12:31:36;;;;;;;1999.90;999.90;;;30.80;95.00;;;;;;5268893;28;20027;-74
2022/09/15 12:34:37;;;;;;;1999.90;999.90;;;31.10;95.50;;;;;;5268510;28;20103;-73
2022/09/15 12:37:12;;;;;;;1999.90;999.90;;;31.00;94.40;;;;;;5268486;28;20035;-73
2022/09/15 12:39:45;;;;;;;1999.90;999.90;;;31.00;95.90;;;;;;5268470;28;20361;-73
2022/09/15 12:42:22;;;;;;;1999.90;999.90;;;31.10;97.00;;;;;;5268066;28;20024;-75
2022/09/15 12:44:55;;;;;;;1999.90;999.90;;;30.70;96.40;;;;;;5268284;28;20024;-73
2022/09/15 12:47:34;;;;;;;1999.90;999.90;;;31.00;95.70;;;;;;5268535;28;20039;-74